sensor_id;sensor_type;location;lat;lon;timestamp;pressure;altitude;pressure_sealevel;temperature;humidity
62632;BME280;48703;51.248;-0.546;2023-05-20T00:02:08;102084;;;9.93;82.73
62632;BME280;48703;51.248;-0.546;2023-05-20T00:05:10;102080;;;9.88;82.74
62632;BME280;48703;51.248;-0.546;2023-05-20T00:08:12;102079;;;9.87;82.53
62632;BME280;48703;51.248;-0.546;2023-05-20T00:11:14;102076;;;9.88;82.50
62632;BME280;48703;51.248;-0.546;2023-05-20T00:14:16;102073;;;9.79;83.05
62632;BME280;48703;51.248;-0.546;2023-05-20T00:17:18;102072;;;9.71;83.54
62632;BME280;48703;51.248;-0.546;2023-05-20T00:20:20;102071;;;9.70;83.25
62632;BME280;48703;51.248;-0.546;2023-05-20T00:23:22;102067;;;9.67;83.26
62632;BME280;48703;51.248;-0.546;2023-05-20T00:26:24;102070;;;9.63;83.73
62632;BME280;48703;51.248;-0.546;2023-05-20T00:29:26;102071;;;9.54;84.17
62632;BME280;48703;51.248;-0.546;2023-05-20T00:32:28;102072;;;9.46;84.36
62632;BME280;48703;51.248;-0.546;2023-05-20T00:35:31;102072;;;9.40;84.72
62632;BME280;48703;51.248;-0.546;2023-05-20T00:38:33;102075;;;9.37;84.38
62632;BME280;48703;51.248;-0.546;2023-05-20T00:41:35;102079;;;9.36;84.40
62632;BME280;48703;51.248;-0.546;2023-05-20T00:44:37;102081;;;9.31;84.59
62632;BME280;48703;51.248;-0.546;2023-05-20T00:47:39;102079;;;9.29;84.94
62632;BME280;48703;51.248;-0.546;2023-05-20T00:50:41;102076;;;9.24;84.72
62632;BME280;48703;51.248;-0.546;2023-05-20T00:53:43;102075;;;9.18;85.54
62632;BME280;48703;51.248;-0.546;2023-05-20T00:56:45;102073;;;9.10;85.76
62632;BME280;48703;51.248;-0.546;2023-05-20T00:59:47;102070;;;9.04;85.74
62632;BME280;48703;51.248;-0.546;2023-05-20T01:02:49;102068;;;9.00;86.32
62632;BME280;48703;51.248;-0.546;2023-05-20T01:05:51;102071;;;8.96;86.54
62632;BME280;48703;51.248;-0.546;2023-05-20T01:08:53;102070;;;8.93;86.14
62632;BME280;48703;51.248;-0.546;2023-05-20T01:11:55;102066;;;8.93;85.99
62632;BME280;48703;51.248;-0.546;2023-05-20T01:14:58;102063;;;8.91;86.13
62632;BME280;48703;51.248;-0.546;2023-05-20T01:17:59;102061;;;8.89;85.45
62632;BME280;48703;51.248;-0.546;2023-05-20T01:21:01;102057;;;8.86;85.97
62632;BME280;48703;51.248;-0.546;2023-05-20T01:24:03;102053;;;8.83;85.57
62632;BME280;48703;51.248;-0.546;2023-05-20T01:27:05;102048;;;8.82;85.39
62632;BME280;48703;51.248;-0.546;2023-05-20T01:30:07;102042;;;8.82;85.28
62632;BME280;48703;51.248;-0.546;2023-05-20T01:33:09;102040;;;8.78;84.94
62632;BME280;48703;51.248;-0.546;2023-05-20T01:36:11;102039;;;8.77;84.37
62632;BME280;48703;51.248;-0.546;2023-05-20T01:39:13;102038;;;8.74;84.62
62632;BME280;48703;51.248;-0.546;2023-05-20T01:42:15;102036;;;8.72;84.94
62632;BME280;48703;51.248;-0.546;2023-05-20T01:45:17;102032;;;8.69;84.68
62632;BME280;48703;51.248;-0.546;2023-05-20T01:48:19;102031;;;8.65;84.97
62632;BME280;48703;51.248;-0.546;2023-05-20T01:51:21;102029;;;8.62;85.08
62632;BME280;48703;51.248;-0.546;2023-05-20T01:54:23;102025;;;8.59;85.18
62632;BME280;48703;51.248;-0.546;2023-05-20T01:57:25;102026;;;8.56;85.48
62632;BME280;48703;51.248;-0.546;2023-05-20T02:00:27;102026;;;8.53;85.61
62632;BME280;48703;51.248;-0.546;2023-05-20T02:03:29;102025;;;8.50;84.94
62632;BME280;48703;51.248;-0.546;2023-05-20T02:06:31;102024;;;8.51;85.01
62632;BME280;48703;51.248;-0.546;2023-05-20T02:09:33;102027;;;8.50;85.32
62632;BME280;48703;51.248;-0.546;2023-05-20T02:12:35;102027;;;8.45;85.08
62632;BME280;48703;51.248;-0.546;2023-05-20T02:15:39;102024;;;8.44;85.20
62632;BME280;48703;51.248;-0.546;2023-05-20T02:18:39;102022;;;8.44;85.18
62632;BME280;48703;51.248;-0.546;2023-05-20T02:21:41;102017;;;8.42;85.42
62632;BME280;48703;51.248;-0.546;2023-05-20T02:24:43;102012;;;8.40;85.30
62632;BME280;48703;51.248;-0.546;2023-05-20T02:27:45;102012;;;8.39;85.47
62632;BME280;48703;51.248;-0.546;2023-05-20T02:30:47;102013;;;8.35;85.83
62632;BME280;48703;51.248;-0.546;2023-05-20T02:33:49;102011;;;8.33;85.56
62632;BME280;48703;51.248;-0.546;2023-05-20T02:36:51;102008;;;8.32;85.79
62632;BME280;48703;51.248;-0.546;2023-05-20T02:39:53;102008;;;8.27;86.04
62632;BME280;48703;51.248;-0.546;2023-05-20T02:42:56;102011;;;8.24;86.00
62632;BME280;48703;51.248;-0.546;2023-05-20T02:45:57;102011;;;8.25;86.10
62632;BME280;48703;51.248;-0.546;2023-05-20T02:48:59;102014;;;8.21;86.35
62632;BME280;48703;51.248;-0.546;2023-05-20T02:52:01;102015;;;8.19;86.61
62632;BME280;48703;51.248;-0.546;2023-05-20T02:55:04;102015;;;8.18;86.43
62632;BME280;48703;51.248;-0.546;2023-05-20T02:58:05;102016;;;8.17;87.06
62632;BME280;48703;51.248;-0.546;2023-05-20T03:01:07;102018;;;8.16;86.92
62632;BME280;48703;51.248;-0.546;2023-05-20T03:04:09;102021;;;8.14;87.23
62632;BME280;48703;51.248;-0.546;2023-05-20T03:07:11;102018;;;8.12;86.81
62632;BME280;48703;51.248;-0.546;2023-05-20T03:10:14;102018;;;8.10;86.98
62632;BME280;48703;51.248;-0.546;2023-05-20T03:13:15;102016;;;8.07;86.86
62632;BME280;48703;51.248;-0.546;2023-05-20T03:16:18;102016;;;8.04;87.11
62632;BME280;48703;51.248;-0.546;2023-05-20T03:19:20;102015;;;7.98;87.31
62632;BME280;48703;51.248;-0.546;2023-05-20T03:22:22;102013;;;7.95;87.50
62632;BME280;48703;51.248;-0.546;2023-05-20T03:25:24;102010;;;7.93;87.57
62632;BME280;48703;51.248;-0.546;2023-05-20T03:28:26;102008;;;7.92;87.82
62632;BME280;48703;51.248;-0.546;2023-05-20T03:31:28;102005;;;7.85;88.28
62632;BME280;48703;51.248;-0.546;2023-05-20T03:34:30;102007;;;7.81;88.09
62632;BME280;48703;51.248;-0.546;2023-05-20T03:37:32;102004;;;7.79;88.06
62632;BME280;48703;51.248;-0.546;2023-05-20T03:40:34;102001;;;7.72;88.31
62632;BME280;48703;51.248;-0.546;2023-05-20T03:43:36;101999;;;7.74;87.80
62632;BME280;48703;51.248;-0.546;2023-05-20T03:46:38;101998;;;7.70;88.10
62632;BME280;48703;51.248;-0.546;2023-05-20T03:49:40;101997;;;7.65;88.49
62632;BME280;48703;51.248;-0.546;2023-05-20T03:52:42;101996;;;7.63;88.30
62632;BME280;48703;51.248;-0.546;2023-05-20T03:55:44;101997;;;7.61;88.34
62632;BME280;48703;51.248;-0.546;2023-05-20T03:58:46;101997;;;7.56;88.64
62632;BME280;48703;51.248;-0.546;2023-05-20T04:01:48;101997;;;7.53;88.61
62632;BME280;48703;51.248;-0.546;2023-05-20T04:04:50;101997;;;7.52;88.60
62632;BME280;48703;51.248;-0.546;2023-05-20T04:07:52;101997;;;7.51;88.69
62632;BME280;48703;51.248;-0.546;2023-05-20T04:10:54;101993;;;7.50;88.49
62632;BME280;48703;51.248;-0.546;2023-05-20T04:13:56;101989;;;7.48;88.56
62632;BME280;48703;51.248;-0.546;2023-05-20T04:16:58;101985;;;7.46;88.66
62632;BME280;48703;51.248;-0.546;2023-05-20T04:20:00;101986;;;7.42;88.97
62632;BME280;48703;51.248;-0.546;2023-05-20T04:23:02;101990;;;7.42;89.10
62632;BME280;48703;51.248;-0.546;2023-05-20T04:26:04;101989;;;7.41;89.27
62632;BME280;48703;51.248;-0.546;2023-05-20T04:29:06;101989;;;7.41;89.20
62632;BME280;48703;51.248;-0.546;2023-05-20T04:32:08;101991;;;7.40;89.31
62632;BME280;48703;51.248;-0.546;2023-05-20T04:35:10;101995;;;7.41;89.03
62632;BME280;48703;51.248;-0.546;2023-05-20T04:38:12;101998;;;7.43;89.25
62632;BME280;48703;51.248;-0.546;2023-05-20T04:41:14;102002;;;7.46;89.98
62632;BME280;48703;51.248;-0.546;2023-05-20T04:44:16;102003;;;7.47;90.65
62632;BME280;48703;51.248;-0.546;2023-05-20T04:47:18;102004;;;7.51;89.86
62632;BME280;48703;51.248;-0.546;2023-05-20T04:50:20;102004;;;7.56;90.64
62632;BME280;48703;51.248;-0.546;2023-05-20T04:53:22;102006;;;7.60;90.68
62632;BME280;48703;51.248;-0.546;2023-05-20T04:56:24;102001;;;7.64;90.40
62632;BME280;48703;51.248;-0.546;2023-05-20T04:59:26;102001;;;7.67;90.62
62632;BME280;48703;51.248;-0.546;2023-05-20T05:02:28;102001;;;7.70;90.62
62632;BME280;48703;51.248;-0.546;2023-05-20T05:05:30;102003;;;7.74;90.81
62632;BME280;48703;51.248;-0.546;2023-05-20T05:08:32;102004;;;7.78;90.23
62632;BME280;48703;51.248;-0.546;2023-05-20T05:11:34;102003;;;7.81;90.82
62632;BME280;48703;51.248;-0.546;2023-05-20T05:14:36;102000;;;7.85;90.68
62632;BME280;48703;51.248;-0.546;2023-05-20T05:17:38;102000;;;7.89;91.37
62632;BME280;48703;51.248;-0.546;2023-05-20T05:20:40;102002;;;7.93;91.08
62632;BME280;48703;51.248;-0.546;2023-05-20T05:23:42;102006;;;7.98;91.11
62632;BME280;48703;51.248;-0.546;2023-05-20T05:26:44;102008;;;8.02;90.98
62632;BME280;48703;51.248;-0.546;2023-05-20T05:29:46;102004;;;8.03;91.45
62632;BME280;48703;51.248;-0.546;2023-05-20T05:32:48;102002;;;8.05;91.06
62632;BME280;48703;51.248;-0.546;2023-05-20T05:35:50;102001;;;8.09;90.99
62632;BME280;48703;51.248;-0.546;2023-05-20T05:38:52;101999;;;8.12;91.20
62632;BME280;48703;51.248;-0.546;2023-05-20T05:41:55;101998;;;8.14;91.04
62632;BME280;48703;51.248;-0.546;2023-05-20T05:44:56;102000;;;8.18;91.20
62632;BME280;48703;51.248;-0.546;2023-05-20T05:47:58;102001;;;8.21;90.97
62632;BME280;48703;51.248;-0.546;2023-05-20T05:51:01;102000;;;8.26;91.31
62632;BME280;48703;51.248;-0.546;2023-05-20T05:54:03;102002;;;8.29;91.03
62632;BME280;48703;51.248;-0.546;2023-05-20T05:57:05;102003;;;8.32;90.85
62632;BME280;48703;51.248;-0.546;2023-05-20T06:00:07;102003;;;8.34;90.93
62632;BME280;48703;51.248;-0.546;2023-05-20T06:03:09;102004;;;8.38;90.87
62632;BME280;48703;51.248;-0.546;2023-05-20T06:06:11;102006;;;8.42;90.51
62632;BME280;48703;51.248;-0.546;2023-05-20T06:09:13;102011;;;8.46;91.09
62632;BME280;48703;51.248;-0.546;2023-05-20T06:12:15;102010;;;8.49;91.10
62632;BME280;48703;51.248;-0.546;2023-05-20T06:15:17;102008;;;8.51;90.81
62632;BME280;48703;51.248;-0.546;2023-05-20T06:18:19;102006;;;8.55;91.31
62632;BME280;48703;51.248;-0.546;2023-05-20T06:21:21;102005;;;8.59;91.13
62632;BME280;48703;51.248;-0.546;2023-05-20T06:25:24;102002;;;8.63;91.04
62632;BME280;48703;51.248;-0.546;2023-05-20T06:28:26;101996;;;8.68;90.94
62632;BME280;48703;51.248;-0.546;2023-05-20T06:31:27;101994;;;8.71;90.97
62632;BME280;48703;51.248;-0.546;2023-05-20T06:34:29;101993;;;8.75;90.74
62632;BME280;48703;51.248;-0.546;2023-05-20T06:37:31;101993;;;8.78;90.62
62632;BME280;48703;51.248;-0.546;2023-05-20T06:40:34;101990;;;8.81;90.27
62632;BME280;48703;51.248;-0.546;2023-05-20T06:43:36;101992;;;8.84;90.54
62632;BME280;48703;51.248;-0.546;2023-05-20T06:46:38;101991;;;8.89;89.94
62632;BME280;48703;51.248;-0.546;2023-05-20T06:49:40;101992;;;8.94;90.31
62632;BME280;48703;51.248;-0.546;2023-05-20T06:52:42;101994;;;8.97;90.08
62632;BME280;48703;51.248;-0.546;2023-05-20T06:55:44;101995;;;9.03;90.43
62632;BME280;48703;51.248;-0.546;2023-05-20T06:58:46;101991;;;9.08;90.01
62632;BME280;48703;51.248;-0.546;2023-05-20T07:01:48;101989;;;9.12;90.10
62632;BME280;48703;51.248;-0.546;2023-05-20T07:04:50;101983;;;9.16;89.72
62632;BME280;48703;51.248;-0.546;2023-05-20T07:07:52;101979;;;9.21;90.03
62632;BME280;48703;51.248;-0.546;2023-05-20T07:10:54;101976;;;9.25;89.80
62632;BME280;48703;51.248;-0.546;2023-05-20T07:13:56;101978;;;9.32;89.83
62632;BME280;48703;51.248;-0.546;2023-05-20T07:16:58;101979;;;9.39;90.02
62632;BME280;48703;51.248;-0.546;2023-05-20T07:20:00;101976;;;9.43;89.27
62632;BME280;48703;51.248;-0.546;2023-05-20T07:23:02;101975;;;9.48;89.22
62632;BME280;48703;51.248;-0.546;2023-05-20T07:26:04;101975;;;9.54;89.57
62632;BME280;48703;51.248;-0.546;2023-05-20T07:29:06;101969;;;9.62;89.51
62632;BME280;48703;51.248;-0.546;2023-05-20T07:32:08;101967;;;9.71;88.93
62632;BME280;48703;51.248;-0.546;2023-05-20T07:35:10;101965;;;9.79;88.61
62632;BME280;48703;51.248;-0.546;2023-05-20T07:38:12;101965;;;9.88;88.65
62632;BME280;48703;51.248;-0.546;2023-05-20T07:41:14;101969;;;9.97;88.65
62632;BME280;48703;51.248;-0.546;2023-05-20T07:44:16;101973;;;10.04;89.08
62632;BME280;48703;51.248;-0.546;2023-05-20T07:47:19;101976;;;10.10;88.41
62632;BME280;48703;51.248;-0.546;2023-05-20T07:50:20;101980;;;10.18;87.27
62632;BME280;48703;51.248;-0.546;2023-05-20T07:53:22;101979;;;10.25;86.95
62632;BME280;48703;51.248;-0.546;2023-05-20T07:56:24;101978;;;10.31;86.69
62632;BME280;48703;51.248;-0.546;2023-05-20T07:59:26;101977;;;10.38;86.87
62632;BME280;48703;51.248;-0.546;2023-05-20T08:02:28;101979;;;10.46;87.27
62632;BME280;48703;51.248;-0.546;2023-05-20T08:05:30;101976;;;10.56;87.69
62632;BME280;48703;51.248;-0.546;2023-05-20T08:08:32;101972;;;10.60;86.43
62632;BME280;48703;51.248;-0.546;2023-05-20T08:11:34;101968;;;10.69;86.95
62632;BME280;48703;51.248;-0.546;2023-05-20T08:14:37;101967;;;10.72;86.19
62632;BME280;48703;51.248;-0.546;2023-05-20T08:17:39;101963;;;10.76;85.25
62632;BME280;48703;51.248;-0.546;2023-05-20T08:20:41;101962;;;10.77;85.38
62632;BME280;48703;51.248;-0.546;2023-05-20T08:23:43;101961;;;10.77;85.01
62632;BME280;48703;51.248;-0.546;2023-05-20T08:26:45;101959;;;10.75;85.19
62632;BME280;48703;51.248;-0.546;2023-05-20T08:29:47;101959;;;10.75;85.31
62632;BME280;48703;51.248;-0.546;2023-05-20T08:32:49;101958;;;10.77;84.99
62632;BME280;48703;51.248;-0.546;2023-05-20T08:35:51;101958;;;10.76;84.95
62632;BME280;48703;51.248;-0.546;2023-05-20T08:38:53;101958;;;10.78;85.56
62632;BME280;48703;51.248;-0.546;2023-05-20T08:41:55;101957;;;10.83;85.40
62632;BME280;48703;51.248;-0.546;2023-05-20T08:44:57;101957;;;10.85;85.48
62632;BME280;48703;51.248;-0.546;2023-05-20T08:47:59;101958;;;10.84;84.71
62632;BME280;48703;51.248;-0.546;2023-05-20T08:51:02;101954;;;10.83;84.27
62632;BME280;48703;51.248;-0.546;2023-05-20T08:54:03;101954;;;10.85;84.51
62632;BME280;48703;51.248;-0.546;2023-05-20T08:57:05;101952;;;10.90;84.79
62632;BME280;48703;51.248;-0.546;2023-05-20T09:00:07;101948;;;10.99;84.77
62632;BME280;48703;51.248;-0.546;2023-05-20T09:03:09;101948;;;11.10;85.01
62632;BME280;48703;51.248;-0.546;2023-05-20T09:06:15;101947;;;11.24;85.88
62632;BME280;48703;51.248;-0.546;2023-05-20T09:09:13;101943;;;11.34;84.34
62632;BME280;48703;51.248;-0.546;2023-05-20T09:12:15;101944;;;11.44;84.14
62632;BME280;48703;51.248;-0.546;2023-05-20T09:15:17;101940;;;11.52;82.32
62632;BME280;48703;51.248;-0.546;2023-05-20T09:18:19;101941;;;11.62;83.39
62632;BME280;48703;51.248;-0.546;2023-05-20T09:21:24;101939;;;11.71;81.89
62632;BME280;48703;51.248;-0.546;2023-05-20T09:24:24;101934;;;11.79;81.95
62632;BME280;48703;51.248;-0.546;2023-05-20T09:27:25;101933;;;11.89;81.91
62632;BME280;48703;51.248;-0.546;2023-05-20T09:30:27;101929;;;12.00;80.99
62632;BME280;48703;51.248;-0.546;2023-05-20T09:33:29;101926;;;12.11;80.10
62632;BME280;48703;51.248;-0.546;2023-05-20T09:36:31;101923;;;12.20;79.87
62632;BME280;48703;51.248;-0.546;2023-05-20T09:39:35;101918;;;12.31;79.77
62632;BME280;48703;51.248;-0.546;2023-05-20T09:42:37;101912;;;12.44;79.92
62632;BME280;48703;51.248;-0.546;2023-05-20T09:45:37;101912;;;12.56;79.08
62632;BME280;48703;51.248;-0.546;2023-05-20T09:48:39;101904;;;12.64;78.56
62632;BME280;48703;51.248;-0.546;2023-05-20T09:51:41;101897;;;12.76;77.81
62632;BME280;48703;51.248;-0.546;2023-05-20T09:54:44;101899;;;12.90;77.09
62632;BME280;48703;51.248;-0.546;2023-05-20T09:57:46;101894;;;12.98;76.76
62632;BME280;48703;51.248;-0.546;2023-05-20T10:00:48;101891;;;13.11;76.00
62632;BME280;48703;51.248;-0.546;2023-05-20T10:03:50;101889;;;13.24;74.60
62632;BME280;48703;51.248;-0.546;2023-05-20T10:06:59;101890;;;13.34;74.94
62632;BME280;48703;51.248;-0.546;2023-05-20T10:09:56;101885;;;13.42;74.48
62632;BME280;48703;51.248;-0.546;2023-05-20T10:12:58;101883;;;13.57;73.05
62632;BME280;48703;51.248;-0.546;2023-05-20T10:16:00;101881;;;13.70;74.24
62632;BME280;48703;51.248;-0.546;2023-05-20T10:19:03;101876;;;13.78;72.98
62632;BME280;48703;51.248;-0.546;2023-05-20T10:22:02;101875;;;13.88;73.64
62632;BME280;48703;51.248;-0.546;2023-05-20T10:25:05;101867;;;13.99;73.33
62632;BME280;48703;51.248;-0.546;2023-05-20T10:28:07;101864;;;14.08;72.36
62632;BME280;48703;51.248;-0.546;2023-05-20T10:31:16;101866;;;14.18;71.97
62632;BME280;48703;51.248;-0.546;2023-05-20T10:34:13;101862;;;14.26;70.30
62632;BME280;48703;51.248;-0.546;2023-05-20T10:37:19;101859;;;14.36;69.91
62632;BME280;48703;51.248;-0.546;2023-05-20T10:40:15;101855;;;14.42;69.72
62632;BME280;48703;51.248;-0.546;2023-05-20T10:43:24;101854;;;14.54;69.82
62632;BME280;48703;51.248;-0.546;2023-05-20T10:46:18;101851;;;14.62;69.70
62632;BME280;48703;51.248;-0.546;2023-05-20T10:49:20;101846;;;14.72;68.74
62632;BME280;48703;51.248;-0.546;2023-05-20T10:52:22;101842;;;14.83;68.13
62632;BME280;48703;51.248;-0.546;2023-05-20T10:55:24;101835;;;14.90;68.03
62632;BME280;48703;51.248;-0.546;2023-05-20T10:58:26;101833;;;14.98;68.56
62632;BME280;48703;51.248;-0.546;2023-05-20T11:01:28;101829;;;15.08;67.92
62632;BME280;48703;51.248;-0.546;2023-05-20T11:04:30;101831;;;15.23;65.38
62632;BME280;48703;51.248;-0.546;2023-05-20T11:07:32;101827;;;15.33;66.28
62632;BME280;48703;51.248;-0.546;2023-05-20T11:10:34;101821;;;15.42;65.78
62632;BME280;48703;51.248;-0.546;2023-05-20T11:13:36;101818;;;15.42;64.08
62632;BME280;48703;51.248;-0.546;2023-05-20T11:16:38;101816;;;15.48;64.15
62632;BME280;48703;51.248;-0.546;2023-05-20T11:19:40;101812;;;15.55;64.34
62632;BME280;48703;51.248;-0.546;2023-05-20T11:22:43;101807;;;15.71;63.89
62632;BME280;48703;51.248;-0.546;2023-05-20T11:25:44;101809;;;15.96;65.23
62632;BME280;48703;51.248;-0.546;2023-05-20T11:28:46;101811;;;16.03;61.17
62632;BME280;48703;51.248;-0.546;2023-05-20T11:31:49;101804;;;16.07;60.50
62632;BME280;48703;51.248;-0.546;2023-05-20T11:34:50;101796;;;16.19;62.70
62632;BME280;48703;51.248;-0.546;2023-05-20T11:37:53;101803;;;16.24;61.85
62632;BME280;48703;51.248;-0.546;2023-05-20T11:40:55;101800;;;16.21;59.89
62632;BME280;48703;51.248;-0.546;2023-05-20T11:43:57;101794;;;16.14;59.22
62632;BME280;48703;51.248;-0.546;2023-05-20T11:46:59;101792;;;16.11;61.03
62632;BME280;48703;51.248;-0.546;2023-05-20T11:50:01;101788;;;16.15;61.86
62632;BME280;48703;51.248;-0.546;2023-05-20T11:53:03;101780;;;16.22;62.35
62632;BME280;48703;51.248;-0.546;2023-05-20T11:56:05;101772;;;16.30;62.09
62632;BME280;48703;51.248;-0.546;2023-05-20T11:59:07;101768;;;16.43;61.78
62632;BME280;48703;51.248;-0.546;2023-05-20T12:02:09;101768;;;16.45;60.58
62632;BME280;48703;51.248;-0.546;2023-05-20T12:05:11;101768;;;16.44;60.75
62632;BME280;48703;51.248;-0.546;2023-05-20T12:08:13;101765;;;16.46;60.76
62632;BME280;48703;51.248;-0.546;2023-05-20T12:11:15;101760;;;16.57;59.42
62632;BME280;48703;51.248;-0.546;2023-05-20T12:14:17;101753;;;16.72;59.66
62632;BME280;48703;51.248;-0.546;2023-05-20T12:17:19;101754;;;16.78;58.59
62632;BME280;48703;51.248;-0.546;2023-05-20T12:20:22;101752;;;16.75;56.82
62632;BME280;48703;51.248;-0.546;2023-05-20T12:23:23;101744;;;16.66;56.61
62632;BME280;48703;51.248;-0.546;2023-05-20T12:26:25;101738;;;16.68;57.79
62632;BME280;48703;51.248;-0.546;2023-05-20T12:29:27;101739;;;16.75;56.76
62632;BME280;48703;51.248;-0.546;2023-05-20T12:32:29;101743;;;16.77;57.60
62632;BME280;48703;51.248;-0.546;2023-05-20T12:35:36;101741;;;16.74;56.56
62632;BME280;48703;51.248;-0.546;2023-05-20T12:38:33;101736;;;16.69;56.56
62632;BME280;48703;51.248;-0.546;2023-05-20T12:41:35;101732;;;16.66;57.37
62632;BME280;48703;51.248;-0.546;2023-05-20T12:44:37;101731;;;16.71;57.13
62632;BME280;48703;51.248;-0.546;2023-05-20T12:47:39;101726;;;16.85;59.38
62632;BME280;48703;51.248;-0.546;2023-05-20T12:50:41;101722;;;16.94;57.90
62632;BME280;48703;51.248;-0.546;2023-05-20T12:53:43;101723;;;17.02;57.35
62632;BME280;48703;51.248;-0.546;2023-05-20T12:56:45;101725;;;17.01;55.73
62632;BME280;48703;51.248;-0.546;2023-05-20T12:59:47;101728;;;17.04;55.71
62632;BME280;48703;51.248;-0.546;2023-05-20T13:02:49;101722;;;17.14;55.70
62632;BME280;48703;51.248;-0.546;2023-05-20T13:05:51;101722;;;17.19;55.59
62632;BME280;48703;51.248;-0.546;2023-05-20T13:08:53;101725;;;17.20;53.96
62632;BME280;48703;51.248;-0.546;2023-05-20T13:11:55;101726;;;17.24;54.30
62632;BME280;48703;51.248;-0.546;2023-05-20T13:14:57;101720;;;17.37;53.90
62632;BME280;48703;51.248;-0.546;2023-05-20T13:17:59;101717;;;17.48;53.27
62632;BME280;48703;51.248;-0.546;2023-05-20T13:21:02;101710;;;17.61;51.65
62632;BME280;48703;51.248;-0.546;2023-05-20T13:24:04;101709;;;17.61;52.06
62632;BME280;48703;51.248;-0.546;2023-05-20T13:27:06;101709;;;17.55;52.32
62632;BME280;48703;51.248;-0.546;2023-05-20T13:30:08;101708;;;17.56;52.00
62632;BME280;48703;51.248;-0.546;2023-05-20T13:33:10;101698;;;17.68;51.64
62632;BME280;48703;51.248;-0.546;2023-05-20T13:36:12;101692;;;17.85;51.79
62632;BME280;48703;51.248;-0.546;2023-05-20T13:39:14;101691;;;17.97;51.42
62632;BME280;48703;51.248;-0.546;2023-05-20T13:42:16;101687;;;17.96;51.02
62632;BME280;48703;51.248;-0.546;2023-05-20T13:45:18;101691;;;17.86;50.06
62632;BME280;48703;51.248;-0.546;2023-05-20T13:48:20;101692;;;17.74;51.39
62632;BME280;48703;51.248;-0.546;2023-05-20T13:51:22;101689;;;17.78;50.40
62632;BME280;48703;51.248;-0.546;2023-05-20T13:54:24;101681;;;17.96;49.37
62632;BME280;48703;51.248;-0.546;2023-05-20T13:57:26;101683;;;18.12;50.81
62632;BME280;48703;51.248;-0.546;2023-05-20T14:00:28;101686;;;18.17;49.61
62632;BME280;48703;51.248;-0.546;2023-05-20T14:03:30;101685;;;18.13;50.05
62632;BME280;48703;51.248;-0.546;2023-05-20T14:06:32;101680;;;18.05;49.60
62632;BME280;48703;51.248;-0.546;2023-05-20T14:09:34;101676;;;17.99;49.38
62632;BME280;48703;51.248;-0.546;2023-05-20T14:12:36;101673;;;18.09;49.13
62632;BME280;48703;51.248;-0.546;2023-05-20T14:15:38;101678;;;18.28;48.40
62632;BME280;48703;51.248;-0.546;2023-05-20T14:18:40;101674;;;18.38;48.54
62632;BME280;48703;51.248;-0.546;2023-05-20T14:21:42;101671;;;18.37;48.42
62632;BME280;48703;51.248;-0.546;2023-05-20T14:24:44;101674;;;18.28;48.16
62632;BME280;48703;51.248;-0.546;2023-05-20T14:27:46;101670;;;18.18;48.16
62632;BME280;48703;51.248;-0.546;2023-05-20T14:30:48;101664;;;18.19;47.19
62632;BME280;48703;51.248;-0.546;2023-05-20T14:33:50;101656;;;18.34;46.98
62632;BME280;48703;51.248;-0.546;2023-05-20T14:36:52;101651;;;18.46;46.87
62632;BME280;48703;51.248;-0.546;2023-05-20T14:39:54;101653;;;18.56;47.37
62632;BME280;48703;51.248;-0.546;2023-05-20T14:42:56;101648;;;18.49;46.07
62632;BME280;48703;51.248;-0.546;2023-05-20T14:45:58;101649;;;18.47;46.38
62632;BME280;48703;51.248;-0.546;2023-05-20T14:49:00;101642;;;18.42;46.33
62632;BME280;48703;51.248;-0.546;2023-05-20T14:52:02;101636;;;18.52;46.24
62632;BME280;48703;51.248;-0.546;2023-05-20T14:55:04;101633;;;18.67;45.73
62632;BME280;48703;51.248;-0.546;2023-05-20T14:58:06;101625;;;18.88;44.88
62632;BME280;48703;51.248;-0.546;2023-05-20T15:01:08;101621;;;19.12;46.06
62632;BME280;48703;51.248;-0.546;2023-05-20T15:04:10;101620;;;19.14;44.45
62632;BME280;48703;51.248;-0.546;2023-05-20T15:07:13;101628;;;18.98;43.99
62632;BME280;48703;51.248;-0.546;2023-05-20T15:10:14;101626;;;18.85;45.00
62632;BME280;48703;51.248;-0.546;2023-05-20T15:13:16;101627;;;19.02;45.92
62632;BME280;48703;51.248;-0.546;2023-05-20T15:16:18;101624;;;19.16;45.81
62632;BME280;48703;51.248;-0.546;2023-05-20T15:19:20;101619;;;19.22;44.87
62632;BME280;48703;51.248;-0.546;2023-05-20T15:22:22;101610;;;19.29;44.21
62632;BME280;48703;51.248;-0.546;2023-05-20T15:25:24;101609;;;19.46;44.41
62632;BME280;48703;51.248;-0.546;2023-05-20T15:28:27;101612;;;19.63;43.29
62632;BME280;48703;51.248;-0.546;2023-05-20T15:31:29;101607;;;19.80;43.23
62632;BME280;48703;51.248;-0.546;2023-05-20T15:34:31;101602;;;19.96;43.52
62632;BME280;48703;51.248;-0.546;2023-05-20T15:37:33;101603;;;19.99;41.64
62632;BME280;48703;51.248;-0.546;2023-05-20T15:40:35;101599;;;20.08;42.22
62632;BME280;48703;51.248;-0.546;2023-05-20T15:43:37;101596;;;20.09;42.14
62632;BME280;48703;51.248;-0.546;2023-05-20T15:46:39;101603;;;19.88;43.03
62632;BME280;48703;51.248;-0.546;2023-05-20T15:49:41;101598;;;19.62;42.59
62632;BME280;48703;51.248;-0.546;2023-05-20T15:52:43;101600;;;19.36;43.24
62632;BME280;48703;51.248;-0.546;2023-05-20T15:55:45;101597;;;19.13;43.37
62632;BME280;48703;51.248;-0.546;2023-05-20T15:58:47;101594;;;19.02;44.56
62632;BME280;48703;51.248;-0.546;2023-05-20T16:01:49;101585;;;19.25;45.31
62632;BME280;48703;51.248;-0.546;2023-05-20T16:04:51;101577;;;19.52;45.40
62632;BME280;48703;51.248;-0.546;2023-05-20T16:07:53;101584;;;19.44;43.49
62632;BME280;48703;51.248;-0.546;2023-05-20T16:10:55;101584;;;19.20;43.63
62632;BME280;48703;51.248;-0.546;2023-05-20T16:13:57;101582;;;19.01;44.19
62632;BME280;48703;51.248;-0.546;2023-05-20T16:16:59;101579;;;18.95;44.92
62632;BME280;48703;51.248;-0.546;2023-05-20T16:20:01;101576;;;19.16;45.48
62632;BME280;48703;51.248;-0.546;2023-05-20T16:23:03;101570;;;19.43;43.99